createdAt,value
2018-03-14T00:01:14.747Z,4.90
2018-03-14T00:03:49.159Z,4.80
2018-03-14T00:06:23.798Z,4.90
2018-03-14T00:08:59.132Z,4.80
2018-03-14T00:11:33.860Z,4.80
2018-03-14T00:14:09.224Z,4.80
2018-03-14T00:16:43.732Z,4.80
2018-03-14T00:19:18.161Z,4.80
2018-03-14T00:21:52.787Z,4.80
2018-03-14T00:24:27.333Z,4.80
2018-03-14T00:27:01.818Z,4.70
2018-03-14T00:29:36.960Z,4.70
2018-03-14T00:32:11.672Z,4.70
2018-03-14T00:34:46.184Z,4.70
2018-03-14T00:37:21.133Z,4.70
2018-03-14T00:39:56.353Z,4.70
2018-03-14T00:42:30.997Z,4.70
2018-03-14T00:45:05.546Z,4.70
2018-03-14T00:47:41.471Z,4.70
2018-03-14T00:50:16.013Z,4.70
2018-03-14T00:52:50.724Z,4.60
2018-03-14T00:55:25.326Z,4.60
2018-03-14T00:57:59.989Z,4.60
2018-03-14T01:00:35.309Z,4.60
2018-03-14T01:03:09.804Z,4.60
2018-03-14T01:05:44.925Z,4.70
2018-03-14T01:08:20.118Z,4.80
2018-03-14T01:10:54.512Z,4.80
2018-03-14T01:13:29.173Z,4.90
2018-03-14T01:16:03.760Z,4.80
2018-03-14T01:18:39.029Z,4.80
2018-03-14T01:21:13.420Z,4.80
2018-03-14T01:23:48.484Z,4.70
2018-03-14T01:26:23.629Z,4.70
2018-03-14T01:28:59.388Z,4.70
2018-03-14T01:31:33.937Z,4.70
2018-03-14T01:34:08.742Z,4.70
2018-03-14T01:36:43.627Z,4.70
2018-03-14T01:39:18.318Z,4.70
2018-03-14T01:41:52.848Z,4.70
2018-03-14T01:44:27.341Z,4.60
2018-03-14T01:47:02.309Z,4.60
2018-03-14T01:49:37.011Z,4.60
2018-03-14T01:52:11.509Z,4.60
2018-03-14T01:54:45.994Z,4.70
2018-03-14T01:57:21.177Z,4.60
2018-03-14T01:59:55.728Z,4.60
2018-03-14T02:02:30.293Z,4.60
2018-03-14T02:05:04.963Z,4.60
2018-03-14T02:07:40.288Z,4.50
2018-03-14T02:10:14.821Z,4.50
2018-03-14T02:12:49.667Z,4.50
2018-03-14T02:15:24.069Z,4.50
2018-03-14T02:17:58.744Z,4.50
2018-03-14T02:20:33.329Z,4.50
2018-03-14T02:23:08.647Z,4.50
2018-03-14T02:25:44.009Z,4.50
2018-03-14T02:28:19.168Z,4.60
2018-03-14T02:30:54.493Z,4.60
2018-03-14T02:33:28.802Z,4.60
2018-03-14T02:36:04.149Z,4.50
2018-03-14T02:38:38.457Z,4.50
2018-03-14T02:41:12.963Z,4.50
2018-03-14T02:43:47.520Z,4.40
2018-03-14T02:46:22.254Z,4.50
2018-03-14T02:48:57.097Z,4.50
2018-03-14T02:51:31.708Z,4.50
2018-03-14T02:54:06.209Z,4.50
2018-03-14T02:56:41.428Z,4.50
2018-03-14T02:59:15.969Z,4.40
2018-03-14T03:01:50.614Z,4.30
2018-03-14T03:04:24.860Z,4.30
2018-03-14T03:06:59.654Z,4.30
2018-03-14T03:09:34.592Z,4.30
2018-03-14T03:12:09.732Z,4.30
2018-03-14T03:14:44.137Z,4.30
2018-03-14T03:17:18.772Z,4.30
2018-03-14T03:19:53.280Z,4.30
2018-03-14T03:22:27.806Z,4.30
2018-03-14T03:25:02.138Z,4.20
2018-03-14T03:27:38.093Z,4.10
2018-03-14T03:30:12.620Z,4.10
2018-03-14T03:32:47.024Z,4.10
2018-03-14T03:35:21.344Z,4.10
2018-03-14T03:37:56.593Z,4.00
2018-03-14T03:40:31.105Z,4.00
2018-03-14T03:43:05.650Z,4.00
2018-03-14T03:45:40.190Z,4.00
2018-03-14T03:48:14.688Z,4.10
2018-03-14T03:50:49.115Z,4.00
2018-03-14T03:53:23.785Z,4.00
2018-03-14T03:55:58.400Z,4.00
2018-03-14T03:58:33.644Z,4.00
2018-03-14T04:01:08.638Z,3.90
2018-03-14T04:03:43.240Z,3.90
2018-03-14T04:06:17.808Z,3.90
2018-03-14T04:08:52.514Z,3.90
2018-03-14T04:11:26.824Z,3.90
2018-03-14T04:14:01.565Z,3.80
2018-03-14T04:16:36.056Z,3.90
2018-03-14T04:19:10.811Z,3.90
2018-03-14T04:21:45.333Z,3.90
2018-03-14T04:24:20.064Z,3.90
2018-03-14T04:26:54.381Z,3.80
2018-03-14T04:29:29.110Z,3.80
2018-03-14T04:32:04.643Z,3.80
2018-03-14T04:34:39.186Z,3.80
2018-03-14T04:37:15.028Z,3.80
2018-03-14T04:39:49.674Z,3.80
2018-03-14T04:42:24.077Z,3.80
2018-03-14T04:44:58.712Z,3.80
2018-03-14T04:47:33.272Z,3.70
2018-03-14T04:50:09.889Z,3.70
2018-03-14T04:52:44.406Z,3.70
2018-03-14T04:55:19.976Z,3.70
2018-03-14T04:57:54.467Z,3.70
2018-03-14T05:00:29.324Z,3.80
2018-03-14T05:03:03.658Z,3.80
2018-03-14T05:05:38.286Z,3.70
2018-03-14T05:08:12.710Z,3.70
2018-03-14T05:10:47.411Z,3.70
2018-03-14T05:13:21.922Z,3.70
2018-03-14T05:15:56.694Z,3.70
2018-03-14T05:18:32.633Z,3.60
2018-03-14T05:21:07.159Z,3.60
2018-03-14T05:23:41.601Z,3.60
2018-03-14T05:26:16.208Z,3.60
2018-03-14T05:28:50.675Z,3.60
2018-03-14T05:31:25.373Z,3.60
2018-03-14T05:33:59.737Z,3.60
2018-03-14T05:36:34.433Z,3.60
2018-03-14T05:39:09.357Z,3.50
2018-03-14T05:41:44.174Z,3.50
2018-03-14T05:44:18.584Z,3.50
2018-03-14T05:46:53.022Z,3.50
2018-03-14T05:49:28.365Z,3.60
2018-03-14T05:52:02.989Z,3.60
2018-03-14T05:54:37.494Z,3.60
2018-03-14T05:57:12.325Z,3.60
2018-03-14T05:59:46.871Z,3.70
2018-03-14T06:02:21.597Z,3.80
2018-03-14T06:04:56.097Z,3.80
2018-03-14T06:07:30.592Z,3.80
2018-03-14T06:10:05.745Z,3.70
2018-03-14T06:12:41.103Z,3.90
2018-03-14T06:15:15.407Z,3.90
2018-03-14T06:17:50.465Z,3.90
2018-03-14T06:20:25.476Z,4.00
2018-03-14T06:23:00.011Z,4.00
2018-03-14T06:25:34.643Z,3.90
2018-03-14T06:28:09.268Z,4.10
2018-03-14T06:30:43.703Z,4.00
2018-03-14T06:33:19.043Z,4.10
2018-03-14T06:35:53.552Z,4.10
2018-03-14T06:38:28.178Z,4.10
2018-03-14T06:41:02.612Z,4.30
2018-03-14T06:43:37.153Z,4.30
2018-03-14T06:46:11.853Z,4.40
2018-03-14T06:48:46.572Z,4.40
2018-03-14T06:51:20.976Z,4.50
2018-03-14T06:53:55.633Z,4.50
2018-03-14T06:56:30.054Z,4.60
2018-03-14T06:59:22.508Z,4.60
2018-03-14T07:02:14.856Z,4.60
2018-03-14T07:05:07.175Z,4.60
2018-03-14T07:07:41.873Z,4.50
2018-03-14T07:10:16.350Z,4.30
2018-03-14T07:12:50.838Z,4.30
2018-03-14T07:15:26.464Z,4.30
2018-03-14T07:18:00.912Z,4.30
2018-03-14T07:20:35.434Z,4.40
2018-03-14T07:23:09.864Z,4.40
2018-03-14T07:25:44.584Z,4.50
2018-03-14T07:28:19.137Z,4.60
2018-03-14T07:30:54.654Z,4.70
2018-03-14T07:33:29.165Z,4.80
2018-03-14T07:36:03.696Z,5.00
2018-03-14T07:38:38.206Z,5.00
2018-03-14T07:41:12.784Z,5.10
2018-03-14T07:43:47.205Z,5.20
2018-03-14T07:46:22.535Z,5.20
2018-03-14T07:48:56.960Z,5.20
2018-03-14T07:51:32.299Z,5.40
2018-03-14T07:54:06.718Z,5.40
2018-03-14T07:56:41.543Z,5.40
2018-03-14T07:59:15.962Z,5.50
2018-03-14T08:01:50.687Z,5.30
2018-03-14T08:04:26.154Z,5.00
2018-03-14T08:07:00.959Z,5.10
2018-03-14T08:09:35.516Z,5.20
2018-03-14T08:12:10.404Z,5.30
2018-03-14T08:14:44.992Z,5.20
2018-03-14T08:17:19.463Z,5.10
2018-03-14T08:19:53.850Z,5.00
2018-03-14T08:25:09.273Z,5.60
2018-03-14T08:27:43.945Z,5.80
2018-03-14T08:30:18.365Z,5.80
2018-03-14T08:32:52.921Z,5.40
2018-03-14T08:35:27.361Z,5.40
2018-03-14T08:38:01.929Z,5.30
2018-03-14T08:40:37.745Z,5.90
2018-03-14T08:43:12.249Z,5.90
2018-03-14T08:45:46.634Z,6.20
2018-03-14T08:48:21.255Z,6.50
2018-03-14T08:50:56.062Z,6.60
2018-03-14T08:53:30.603Z,6.70
2018-03-14T08:56:05.045Z,6.70
2018-03-14T08:58:39.545Z,6.70
2018-03-14T09:01:13.860Z,6.50
2018-03-14T09:03:49.068Z,6.70
2018-03-14T09:06:23.537Z,6.70
2018-03-14T09:08:57.904Z,6.60
2018-03-14T09:11:32.324Z,6.70
2018-03-14T09:14:06.948Z,6.90
2018-03-14T09:16:42.084Z,6.50
2018-03-14T09:19:16.612Z,6.50
2018-03-14T09:21:51.932Z,6.40
2018-03-14T09:24:26.484Z,6.40
2018-03-14T09:27:01.385Z,6.50
2018-03-14T09:29:36.137Z,6.40
2018-03-14T09:32:10.561Z,6.60
2018-03-14T09:34:45.804Z,7.10
2018-03-14T09:37:20.139Z,7.10
2018-03-14T09:39:54.744Z,7.10
2018-03-14T09:42:29.095Z,7.10
2018-03-14T09:45:03.794Z,6.90
2018-03-14T09:47:39.133Z,6.30
2018-03-14T09:50:13.857Z,6.30
2018-03-14T09:52:48.318Z,6.10
2018-03-14T09:55:23.119Z,6.10
2018-03-14T09:57:57.754Z,6.00
2018-03-14T10:00:32.140Z,6.10
2018-03-14T10:03:06.597Z,6.00
2018-03-14T10:05:42.043Z,5.80
2018-03-14T10:08:16.534Z,5.80
2018-03-14T10:10:51.298Z,5.80
2018-03-14T10:13:25.724Z,5.70
2018-03-14T10:16:00.724Z,5.60
2018-03-14T10:18:35.165Z,5.60
2018-03-14T10:21:09.680Z,5.60
2018-03-14T10:23:44.171Z,5.60
2018-03-14T10:26:19.433Z,5.50
2018-03-14T10:28:53.995Z,5.50
2018-03-14T10:31:28.702Z,5.50
2018-03-14T10:34:03.308Z,5.50
2018-03-14T10:36:38.565Z,5.50
2018-03-14T10:39:12.877Z,5.50
2018-03-14T10:41:47.327Z,5.60
2018-03-14T10:44:21.870Z,5.60
2018-03-14T10:46:56.388Z,5.70
2018-03-14T10:49:30.893Z,5.80
2018-03-14T10:52:05.497Z,5.70
2018-03-14T10:54:39.905Z,5.70
2018-03-14T10:57:14.333Z,5.40
2018-03-14T10:59:48.788Z,5.40
2018-03-14T11:02:23.744Z,5.20
2018-03-14T11:04:58.269Z,5.10
2018-03-14T11:07:33.040Z,5.20
2018-03-14T11:10:08.172Z,5.30
2018-03-14T11:12:42.824Z,5.50
2018-03-14T11:15:18.288Z,5.50
2018-03-14T11:17:53.182Z,5.50
2018-03-14T11:20:27.660Z,5.50
2018-03-14T11:23:02.201Z,5.40
2018-03-14T11:25:36.784Z,5.40
2018-03-14T11:28:11.485Z,5.30
2018-03-14T11:30:46.008Z,5.30
2018-03-14T11:33:20.561Z,5.30
2018-03-14T11:35:54.980Z,5.30
2018-03-14T11:38:29.564Z,5.30
2018-03-14T11:41:03.809Z,5.30
2018-03-14T11:43:39.032Z,5.40
2018-03-14T11:46:13.488Z,5.40
2018-03-14T11:48:48.076Z,5.30
2018-03-14T11:51:22.521Z,5.10
2018-03-14T11:53:57.764Z,5.40
2018-03-14T11:56:32.161Z,5.40
2018-03-14T11:59:06.789Z,5.30
2018-03-14T12:01:41.132Z,5.30
2018-03-14T12:04:15.549Z,5.30
2018-03-14T12:06:49.887Z,5.40
2018-03-14T12:09:25.056Z,5.30
2018-03-14T12:12:00.557Z,5.60
2018-03-14T12:14:35.153Z,5.60
2018-03-14T12:17:09.665Z,5.80
2018-03-14T12:19:44.209Z,5.80
2018-03-14T12:22:24.120Z,5.90
2018-03-14T12:24:58.820Z,6.00
2018-03-14T12:27:33.369Z,6.00
2018-03-14T12:30:08.033Z,5.70
2018-03-14T12:32:42.592Z,5.60
2018-03-14T12:35:17.074Z,5.80
2018-03-14T12:37:51.525Z,5.90
2018-03-14T12:40:26.285Z,6.00
2018-03-14T12:43:01.206Z,6.00
2018-03-14T12:45:35.778Z,6.20
2018-03-14T12:48:10.489Z,6.00
2018-03-14T12:50:45.232Z,6.00
2018-03-14T12:53:19.766Z,5.90
2018-03-14T12:55:54.281Z,5.70
2018-03-14T12:58:28.947Z,5.70
2018-03-14T13:01:03.745Z,5.80
2018-03-14T13:03:38.261Z,5.90
2018-03-14T13:06:12.780Z,5.70
2018-03-14T13:08:47.653Z,5.70
2018-03-14T13:11:23.025Z,5.90
2018-03-14T13:13:57.357Z,5.90
2018-03-14T13:16:31.901Z,6.00
2018-03-14T13:19:06.289Z,6.00
2018-03-14T13:21:40.955Z,6.10
2018-03-14T13:24:15.336Z,6.10
2018-03-14T13:26:49.790Z,6.10
2018-03-14T13:29:24.293Z,6.10
2018-03-14T13:31:58.836Z,6.00
2018-03-14T13:34:34.162Z,6.20
2018-03-14T13:37:09.337Z,6.10
2018-03-14T13:39:43.838Z,6.20
2018-03-14T13:42:18.369Z,6.20
2018-03-14T13:44:52.915Z,6.30
2018-03-14T13:47:27.407Z,6.20
2018-03-14T13:50:01.870Z,6.30
2018-03-14T13:52:36.456Z,6.40
2018-03-14T13:55:10.999Z,6.40
2018-03-14T13:57:45.501Z,6.50
2018-03-14T14:00:19.920Z,6.40
2018-03-14T14:02:54.349Z,6.40
2018-03-14T14:05:28.786Z,6.50
2018-03-14T14:08:04.012Z,6.50
2018-03-14T14:10:39.132Z,6.30
2018-03-14T14:13:14.068Z,6.30
2018-03-14T14:15:49.388Z,6.30
2018-03-14T14:18:25.329Z,6.40
2018-03-14T14:20:59.876Z,6.40
2018-03-14T14:23:34.437Z,6.40
2018-03-14T14:26:08.765Z,6.20
2018-03-14T14:28:43.256Z,6.10
2018-03-14T14:31:17.826Z,6.10
2018-03-14T14:33:52.460Z,6.00
2018-03-14T14:36:27.285Z,6.10
2018-03-14T14:39:01.971Z,6.20
2018-03-14T14:41:36.322Z,6.20
2018-03-14T14:44:10.808Z,6.00
2018-03-14T14:46:45.204Z,5.90
2018-03-14T14:49:19.572Z,5.80
2018-03-14T14:51:54.080Z,5.90
2018-03-14T14:54:28.542Z,5.90
2018-03-14T14:57:03.105Z,5.80
2018-03-14T14:59:38.529Z,5.60
2018-03-14T15:02:13.724Z,5.70
2018-03-14T15:04:49.049Z,5.70
2018-03-14T15:07:23.471Z,5.70
2018-03-14T15:09:58.086Z,5.60
2018-03-14T15:12:32.627Z,5.60
2018-03-14T15:15:07.345Z,5.70
2018-03-14T15:17:41.757Z,5.70
2018-03-14T15:20:16.596Z,5.60
2018-03-14T15:22:51.033Z,5.70
2018-03-14T15:25:26.472Z,5.60
2018-03-14T15:28:00.987Z,5.70
2018-03-14T15:30:36.351Z,5.50
2018-03-14T15:33:10.764Z,5.50
2018-03-14T15:35:45.375Z,5.40
2018-03-14T15:38:19.892Z,5.40
2018-03-14T15:40:54.632Z,5.50
2018-03-14T15:43:29.186Z,5.50
2018-03-14T15:46:03.888Z,5.40
2018-03-14T15:48:38.403Z,5.40
2018-03-14T15:51:13.333Z,5.40
2018-03-14T15:53:47.876Z,5.40
2018-03-14T15:56:22.994Z,5.40
2018-03-14T15:58:57.500Z,5.50
2018-03-14T16:01:32.373Z,5.60
2018-03-14T16:04:06.834Z,5.50
2018-03-14T16:06:41.494Z,5.40
2018-03-14T16:09:16.004Z,5.50
2018-03-14T16:11:50.757Z,5.40
2018-03-14T16:14:25.168Z,5.30
2018-03-14T16:16:59.795Z,5.20
2018-03-14T16:19:34.318Z,5.10
2018-03-14T16:22:09.867Z,5.00
2018-03-14T16:24:45.077Z,5.00
2018-03-14T16:27:20.346Z,5.00
2018-03-14T16:29:55.157Z,5.00
2018-03-14T16:32:30.414Z,5.00
2018-03-14T16:35:04.920Z,5.10
2018-03-14T16:37:39.821Z,5.00
2018-03-14T16:40:14.652Z,5.00
2018-03-14T16:42:49.348Z,5.00
2018-03-14T16:45:23.796Z,5.00
2018-03-14T16:47:59.201Z,5.00
2018-03-14T16:50:33.661Z,5.00
2018-03-14T16:53:08.249Z,5.00
2018-03-14T16:55:42.740Z,4.90
2018-03-14T16:58:17.305Z,4.90
2018-03-14T17:00:51.863Z,4.80
2018-03-14T17:03:26.495Z,4.90
2018-03-14T17:06:01.109Z,4.90
2018-03-14T17:08:35.793Z,4.80
2018-03-14T17:11:10.210Z,4.80
2018-03-14T17:13:44.830Z,4.80
2018-03-14T17:16:19.305Z,4.70
2018-03-14T17:18:54.883Z,4.70
2018-03-14T17:21:29.349Z,4.70
2018-03-14T17:24:03.964Z,4.80
2018-03-14T17:26:38.434Z,4.70
2018-03-14T17:29:13.854Z,4.70
2018-03-14T17:31:49.305Z,4.70
2018-03-14T17:34:23.890Z,4.60
2018-03-14T17:36:59.217Z,4.60
2018-03-14T17:39:33.569Z,4.60
2018-03-14T17:42:08.073Z,4.60
2018-03-14T17:44:42.592Z,4.60
2018-03-14T17:47:17.145Z,4.60
2018-03-14T17:49:51.702Z,4.50
2018-03-14T17:52:26.036Z,4.60
2018-03-14T17:55:00.737Z,4.60
2018-03-14T17:57:35.141Z,4.60
2018-03-14T18:00:09.739Z,4.60
2018-03-14T18:02:44.293Z,4.60
2018-03-14T18:05:19.188Z,4.60
2018-03-14T18:07:53.672Z,4.60
2018-03-14T18:10:28.662Z,4.60
2018-03-14T18:13:03.410Z,4.60
2018-03-14T18:15:38.128Z,4.50
2018-03-14T18:18:12.667Z,4.50
2018-03-14T18:20:48.181Z,4.60
2018-03-14T18:23:22.633Z,4.50
2018-03-14T18:25:57.530Z,4.50
2018-03-14T18:28:33.198Z,4.50
2018-03-14T18:31:07.926Z,4.50
2018-03-14T18:33:42.431Z,4.50
2018-03-14T18:36:17.454Z,4.50
2018-03-14T18:38:52.010Z,4.50
2018-03-14T18:41:28.245Z,4.50
2018-03-14T18:44:02.696Z,4.50
2018-03-14T18:46:38.535Z,4.50
2018-03-14T18:49:13.044Z,4.50
2018-03-14T18:51:47.794Z,4.50
2018-03-14T18:54:23.124Z,4.50
2018-03-14T18:56:58.284Z,4.50
2018-03-14T18:59:32.811Z,4.60
2018-03-14T19:02:08.306Z,4.40
2018-03-14T19:04:43.081Z,4.40
2018-03-14T19:07:17.996Z,4.40
2018-03-14T19:09:52.473Z,4.30
2018-03-14T19:12:27.249Z,4.30
2018-03-14T19:15:01.707Z,4.30
2018-03-14T19:17:36.303Z,4.30
2018-03-14T19:20:10.748Z,4.40
2018-03-14T19:22:45.336Z,4.40
2018-03-14T19:25:19.766Z,4.40
2018-03-14T19:27:54.287Z,4.40
2018-03-14T19:30:28.872Z,4.30
2018-03-14T19:33:04.270Z,4.30
2018-03-14T19:35:38.894Z,4.20
2018-03-14T19:38:13.349Z,4.30
2018-03-14T19:40:47.904Z,4.30
2018-03-14T19:43:22.446Z,4.30
2018-03-14T19:45:57.345Z,4.30
2018-03-14T19:48:31.842Z,4.30
2018-03-14T19:51:06.436Z,4.30
2018-03-14T19:53:41.152Z,4.30
2018-03-14T19:56:16.530Z,4.30
2018-03-14T19:58:51.017Z,4.30
2018-03-14T20:01:25.536Z,4.30
2018-03-14T20:04:00.013Z,4.30
2018-03-14T20:06:34.992Z,4.30
2018-03-14T20:09:10.140Z,4.30
2018-03-14T20:11:44.412Z,4.30
2018-03-14T20:14:18.975Z,4.40
2018-03-14T20:16:54.312Z,4.30
2018-03-14T20:19:29.865Z,4.30
2018-03-14T20:22:04.330Z,4.30
2018-03-14T20:24:38.910Z,4.30
2018-03-14T20:27:13.408Z,4.30
2018-03-14T20:29:47.953Z,4.30
2018-03-14T20:32:23.185Z,4.30
2018-03-14T20:34:57.825Z,4.20
2018-03-14T20:37:33.049Z,4.30
2018-03-14T20:40:08.097Z,4.30
2018-03-14T20:42:42.568Z,4.30
2018-03-14T20:45:17.142Z,4.20
2018-03-14T20:47:51.901Z,4.20
2018-03-14T20:50:27.058Z,4.20
2018-03-14T20:53:01.451Z,4.20
2018-03-14T20:55:37.092Z,4.10
2018-03-14T20:58:11.625Z,4.10
2018-03-14T21:00:46.352Z,4.20
2018-03-14T21:03:21.588Z,4.20
2018-03-14T21:05:57.246Z,4.10
2018-03-14T21:08:31.513Z,4.10
2018-03-14T21:11:06.548Z,4.20
2018-03-14T21:13:41.513Z,4.20
2018-03-14T21:16:16.952Z,4.20
2018-03-14T21:18:51.421Z,4.20
2018-03-14T21:21:26.409Z,4.20
2018-03-14T21:24:00.877Z,4.10
2018-03-14T21:26:36.077Z,4.20
2018-03-14T21:29:10.530Z,4.10
2018-03-14T21:31:45.124Z,4.10
2018-03-14T21:34:19.561Z,4.00
2018-03-14T21:36:54.984Z,4.00
2018-03-14T21:39:29.301Z,4.00
2018-03-14T21:42:04.648Z,4.00
2018-03-14T21:44:39.468Z,4.00
2018-03-14T21:47:13.901Z,4.00
2018-03-14T21:49:48.615Z,4.00
2018-03-14T21:52:23.149Z,3.90
2018-03-14T21:54:57.676Z,3.90
2018-03-14T21:57:32.201Z,3.90
2018-03-14T22:00:06.675Z,4.00
2018-03-14T22:02:42.669Z,4.00
2018-03-14T22:05:17.068Z,3.90
2018-03-14T22:07:52.006Z,4.00
2018-03-14T22:10:26.433Z,4.00
2018-03-14T22:13:01.806Z,4.00
2018-03-14T22:15:36.290Z,4.00
2018-03-14T22:18:10.840Z,4.00
2018-03-14T22:20:46.285Z,4.00
2018-03-14T22:23:20.909Z,4.00
2018-03-14T22:25:55.553Z,4.00
2018-03-14T22:28:31.180Z,4.00
2018-03-14T22:31:05.784Z,4.00
2018-03-14T22:33:40.650Z,4.00
2018-03-14T22:36:15.118Z,4.10
2018-03-14T22:38:49.767Z,4.10
2018-03-14T22:41:24.230Z,4.00
2018-03-14T22:43:58.941Z,4.10
2018-03-14T22:46:33.521Z,4.00
2018-03-14T22:49:08.798Z,4.00
2018-03-14T22:51:43.086Z,4.00
2018-03-14T22:54:17.681Z,4.00
2018-03-14T22:56:52.157Z,4.10
2018-03-14T22:59:26.596Z,4.00
2018-03-14T23:02:01.236Z,4.10
2018-03-14T23:04:35.952Z,4.00
2018-03-14T23:07:10.493Z,4.00
2018-03-14T23:09:45.118Z,4.00
2018-03-14T23:12:19.496Z,4.00
2018-03-14T23:14:54.052Z,4.00
2018-03-14T23:17:28.458Z,4.00
2018-03-14T23:20:03.696Z,4.00
2018-03-14T23:22:38.122Z,4.00
2018-03-14T23:25:12.748Z,3.90
2018-03-14T23:27:47.904Z,3.90
2018-03-14T23:30:22.777Z,3.90
2018-03-14T23:32:57.504Z,3.90
2018-03-14T23:35:33.006Z,3.90
2018-03-14T23:38:07.580Z,3.90
2018-03-14T23:40:42.285Z,3.90
2018-03-14T23:43:17.023Z,3.90
2018-03-14T23:45:51.802Z,3.90
2018-03-14T23:48:26.898Z,3.90
2018-03-14T23:51:01.873Z,3.90
2018-03-14T23:53:36.321Z,3.80
2018-03-14T23:56:11.117Z,3.80
2018-03-14T23:58:45.559Z,3.80
